Amsterdam, New York
Current Conditions -  °F | °C
As of 9:15 PM on Monday 22 Dec 2014 (Local Time) from KNY0 Reporting Station
Overcast Overcast  
Wind Chill: -4°   Ceiling: 1600
Heat Index:   Visibility: 10mi
Dew Point: -2°   Wind: 7mph
Humidity: 88%   Direction: 50°NE
Pressure: 30.22"   Gusts: NA
Location:  42.94°N, 74.19°W
Report Text: KNY0 230215Z AUTO 05006KT 10SM OVC016 00/M02 A3022 RMK AO2 T10011018
Loading
Personal Weather Stations






























Interactive Weather Map New forecast layout! Learn more

10-Day Weather Forecast

Advertisements
Track Severe Weather on mobile